Flight Track Log - Related Links

Times and Time Zones

All times are in EDT time to prevent confusion due to time zone crossing. See the BJS542 flight status page for this flight to view local times or setup timezone preferences in your user account.

Time Position Orientation Groundspeed Altitude Reporting Facility
EDT Latitude Longitude Course Direction KTS MPH feet Rate Location/Type
Thu 06:07:11 PM 42.8847 -112.6111 136° Southeast 198 228 5,800  Level Salt Center
Thu 06:08:13 PM 42.8272 -112.6067 177° South 213 245 9,100 2,952 Climbing Salt Center
Thu 06:09:00 PM 42.7000 -112.7014 172° South  Level Estimated
Thu 06:09:15 PM 42.7472 -112.5883 170° South 238 274 11,900  Level Salt Center
Thu 06:10:00 PM 42.6301 -112.7365 172° South  Level Estimated
Thu 06:10:17 PM 42.6439 -112.5556 167° South 321 369 15,200  Level Salt Center
Thu 06:11:00 PM 42.5765 -112.6660 136° Southeast  Level FlightAware
Thu 06:11:19 PM 42.5472 -112.5336 171° South 348 400 18,300  Level Salt Center
Thu 06:12:00 PM 42.5230 -112.5956 136° Southeast  Level FlightAware
Thu 06:12:21 PM 42.4503 -112.5131 171° South 353 406 21,700  Level Salt Center
Thu 06:13:23 PM 42.3497 -112.4869 169° South 367 422 24,100 2,129 Climbing Salt Center
Thu 06:14:25 PM 42.2453 -112.4614 170° South 381 438 26,100 1,742 Climbing Salt Center
Thu 06:15:27 PM 42.1342 -112.4283 168° South 406 467 27,700 1,742 Climbing Salt Center
Thu 06:16:29 PM 41.9956 -112.3772 165° South 430 495 29,700 1,790 Climbing Salt Center
Thu 06:17:31 PM 41.8772 -112.3336 165° South 440 506 31,400 1,887 Climbing Salt Center
Thu 06:18:33 PM 41.7600 -112.2903 165° South 439 505 33,600 2,226 Climbing Salt Center
Thu 06:19:35 PM 41.6472 -112.2492 165° South 420 483 36,000 1,935 Climbing Salt Center
Thu 06:20:37 PM 41.5369 -112.2097 165° South 411 473 37,600 1,403 Climbing Salt Center
Thu 06:21:39 PM 41.4258 -112.1700 165° South 414 476 38,900 1,220 Climbing Salt Center
Thu 06:22:40 PM 41.2925 -112.1225 165° South 416 479 40,100 976 Climbing Salt Center
Thu 06:23:42 PM 41.1786 -112.0911 168° South 422 486 40,900 823 Climbing Salt Center
Thu 06:24:44 PM 41.0639 -112.0728 173° South 423 487 41,800 823 Climbing Salt Center
Thu 06:25:46 PM 40.9489 -112.0544 173° South 425 489 42,600 823 Climbing Salt Center
Thu 06:26:48 PM 40.8344 -112.0328 172° South 420 483 43,500 726 Climbing Salt Center
Thu 06:27:50 PM 40.6953 -112.0122 174° South 429 494 44,100 677 Climbing Salt Center
Thu 06:28:52 PM 40.5869 -112.0517 195° South 401 461 44,900 435 Climbing Salt Center
Thu 06:29:54 PM 40.4786 -112.1064 201° Southwest 418 481 45,000 48 Climbing Salt Center
Thu 06:30:56 PM 40.3703 -112.1653 202° Southwest 426 490 45,000  Level Salt Center
Thu 06:31:58 PM 40.2606 -112.2208 201° Southwest 424 488 45,000  Level Salt Center
Thu 06:33:00 PM 40.1500 -112.2786 202° Southwest 426 490 45,000  Level Salt Center
Thu 06:34:01 PM 40.0172 -112.3450 201° Southwest 425 489 45,000  Level Salt Center
Thu 06:35:03 PM 39.9072 -112.4011 201° Southwest 425 489 45,000  Level Salt Center
Thu 06:36:05 PM 39.7972 -112.4572 201° Southwest 425 489 45,000  Level Salt Center
Thu 06:37:07 PM 39.6875 -112.5122 201° Southwest 422 486 45,000  Level Salt Center
Thu 06:38:09 PM 39.5781 -112.5706 202° Southwest 422 486 45,000  Level Salt Center
Thu 06:39:11 PM 39.4681 -112.6214 200° South 418 481 45,000  Level Salt Center
Thu 06:40:13 PM 39.3519 -112.6747 200° South 416 479 45,000  Level Salt Center
Thu 06:41:14 PM 39.2417 -112.7297 201° Southwest 422 486 45,000  Level Salt Center
Thu 06:42:16 PM 39.1103 -112.7975 202° Southwest 423 487 45,000  Level Salt Center
Thu 06:43:18 PM 39.0006 -112.8511 201° Southwest 423 487 45,000  Level Salt Center
Thu 06:44:20 PM 38.8903 -112.9067 201° Southwest 425 489 45,000  Level Salt Center
Thu 06:45:22 PM 38.7797 -112.9622 201° Southwest 428 493 45,000  Level Salt Center
Thu 06:46:24 PM 38.6703 -113.0133 200° South 422 486 45,000  Level Salt Center
Thu 06:47:26 PM 38.5597 -113.0672 201° Southwest 423 487 45,000  Level Salt Center
Thu 06:48:27 PM 38.4281 -113.1317 201° Southwest 423 487 45,000  Level Salt Center
Thu 06:49:29 PM 38.3183 -113.1836 200° South 422 486 45,000  Level Salt Center
Thu 06:50:31 PM 38.2097 -113.2375 201° Southwest 421 484 45,000  Level Salt Center
Thu 06:51:33 PM 38.0997 -113.2903 201° Southwest 424 488 45,000  Level Salt Center
Thu 06:52:35 PM 37.9906 -113.3428 201° Southwest 424 488 45,000  Level Salt Center
Thu 06:53:37 PM 37.8828 -113.3994 203° Southwest 423 487 45,000  Level Salt Center
Thu 06:54:39 PM 37.7658 -113.4944 213° Southwest 420 483 45,000  Level Salt Center
Thu 06:55:41 PM 37.6675 -113.5714 212° Southwest 419 482 45,000  Level Salt Center
Thu 06:56:43 PM 37.5711 -113.6486 212° Southwest 417 480 45,000  Level Los Center
Thu 06:57:45 PM 37.4744 -113.7200 210° Southwest 419 482 45,000  Level Los Center
Thu 06:58:47 PM 37.3681 -113.7917 208° Southwest 420 483 45,000  Level Los Center
Thu 06:59:49 PM 37.2431 -113.8711 207° Southwest 422 486 45,000  Level Los Center
Thu 07:00:51 PM 37.1381 -113.9350 206° Southwest 428 493 45,000  Level Los Center
Thu 07:01:54 PM 37.0342 -114.0006 207° Southwest 419 482 45,000  Level Los Center
Thu 07:02:56 PM 36.9286 -114.0669 207° Southwest 421 484 45,000  Level Los Center
Thu 07:03:58 PM 36.8228 -114.1333 207° Southwest 421 484 45,000  Level Los Center
Thu 07:05:00 PM 36.6936 -114.2153 207° Southwest 432 497 45,000  Level Los Center
Thu 07:06:02 PM 36.5919 -114.2778 206° Southwest 418 481 45,000  Level Los Center
Thu 07:07:04 PM 36.4861 -114.3439 207° Southwest 420 483 45,000  Level Los Center
Thu 07:08:06 PM 36.3781 -114.4100 206° Southwest 428 493 45,000  Level Los Center
Thu 07:09:09 PM 36.2711 -114.4756 206° Southwest 430 495 45,000  Level Los Center
Thu 07:10:11 PM 36.1636 -114.5422 207° Southwest 430 495 45,000  Level Los Center
Thu 07:11:13 PM 36.0567 -114.6075 206° Southwest 428 493 45,000  Level Los Center
Thu 07:12:15 PM 35.9286 -114.6869 207° Southwest 430 495 45,000  Level Los Center
Thu 07:13:17 PM 35.8219 -114.7531 207° Southwest 428 493 45,000  Level Los Center
Thu 07:14:19 PM 35.7161 -114.8172 206° Southwest 425 489 45,000  Level Los Center
Thu 07:15:21 PM 35.6106 -114.8822 207° Southwest 423 487 45,000 48 Level Los Center
Thu 07:16:23 PM 35.5144 -114.9569 212° Southwest 411 473 45,100  Climbing Los Center
Thu 07:17:26 PM 35.4225 -115.0408 217° Southwest 410 472 45,000 -480 Descending Los Center
Thu 07:18:28 PM 35.3317 -115.1275 218° Southwest 413 475 44,100 -1,016 Descending Los Center
Thu 07:19:30 PM 35.2225 -115.2314 218° Southwest 412 474 42,900 -1,258 Descending Los Center
Thu 07:20:32 PM 35.1475 -115.3056 219° Southwest 414 476 41,500 -2,129 Descending Los Center
Thu 07:21:34 PM 35.0419 -115.4156 220° Southwest 415 478 38,500 -2,710 Descending Los Center
Thu 07:22:36 PM 34.9575 -115.5122 223° Southwest 417 480 35,900 -2,468 Descending Los Center
Thu 07:23:38 PM 34.8739 -115.6103 224° Southwest 417 480 33,400 -2,565 Descending Los Center
Thu 07:24:40 PM 34.7883 -115.7114 224° Southwest 426 490 30,600 -2,102 Descending Los Center
Thu 07:25:55 PM 34.6903 -115.8328 226° Southwest 418 481 28,600 -1,139 Descending Los Center
Thu 07:26:57 PM 34.5850 -115.9442 221° Southwest 427 491 28,000 -290 Descending Los Center
Thu 07:27:59 PM 34.4719 -115.9942 200° South 434 499 28,000  Level Los Center
Thu 07:29:01 PM 34.3575 -116.0469 201° Southwest 437 503 28,000  Level Los Center
Thu 07:30:04 PM 34.2411 -116.0978 200° South 442 509 28,000 -48 Level Los Center
Thu 07:31:06 PM 34.1092 -116.1581 201° Southwest 447 514 27,900 -823 Descending Los Center
Thu 07:32:08 PM 33.9950 -116.2069 200° South 439 505 26,300 -1,500 Descending Los Center
Thu 07:33:10 PM 33.8783 -116.2144 183° South 419 482 24,800 -1,113 Descending Los Center
Thu 07:34:12 PM 33.7639 -116.2289 186° South 413 475 24,000 -677 Descending Los Center
Thu 07:35:14 PM 33.6503 -116.2572 192° South 412 474 23,400 -1,210 Descending Los Center
Thu 07:36:16 PM 33.5197 -116.3117 199° South 418 481 21,500 -1,597 Descending Los Center
Thu 07:37:18 PM 33.4147 -116.3617 202° Southwest 412 474 20,100 -2,352 Descending Los Center
Thu 07:38:21 PM 33.3203 -116.4089 203° Southwest 382 440 16,600 -3,216 Descending Los Center
Thu 07:39:23 PM 33.2331 -116.4569 205° Southwest 354 407 13,400 -2,274 Descending Los Center
Thu 07:40:25 PM 33.1414 -116.5028 203° Southwest 357 411 11,900 -726 Descending Los Center
Thu 07:41:27 PM 33.0322 -116.5522 201° Southwest 354 407 11,900 -145 Level Los Center
Thu 07:42:29 PM 32.9506 -116.6053 209° Southwest 347 399 11,600 -1,065 Descending Los Center
Thu 07:43:31 PM 32.8975 -116.6825 231° Southwest 311 358 9,700 -2,371 Descending Los Center
Thu 07:44:33 PM 32.8467 -116.7572 231° Southwest 297 342 6,700 -2,516 Descending Los Center
Thu 07:45:35 PM 32.8050 -116.8186 231° Southwest 246 283 4,500 -2,083 Descending Los Center
Thu 07:46:34 PM 32.8167 -116.8833 282° West 162 186 2,500 -1,550 Descending Southern TRACON
Thu 07:47:35 PM 32.8167 -116.9333 270° West 143 165 1,400 -744 Descending Southern TRACON
Thu 07:48:35 PM 32.8167 -116.9833 270° West 162 186 1,000 -400 Descending Southern TRACON

Login

Don't have an account? Register now (free) for customized features, flight alerts, and more!